1966 Severe Tropical Cyclone SHIRLEY (1966088S13121)


IBTrACS version v04r00. Visit IBTrACS website for data access.
Please direct all questions to the IBTrACS Q and A forum

Storm track - Intensity - Wind Radii - Intensity Data - Source Data - All data

Summary Information

Storm ID 1966088S13121
Start Mar 28 23Z
Landfall Apr 2 09Z
Max Intensity 80 kt (Mar 31 12Z), 965 mb (Mar 31 11Z)
End Apr 4 23Z
ATCF IDs ,SH351966
Track status Best track data.

Storm track plot

Map of storm track

Intensity plots

Map of storm track

Radial wind information

No radial wind information for this storm


Position and Intensity Table

BASIN ISO_TIME_________ NATURE LAT LON WMO PRES BOM PRES NEUMANN WIND NEUMANN PRES
degrees north degrees east mb mb kts mb
SI 1966-03-28 23:00:00 NR -12.70 121.00
SI 1966-03-29 00:00:00 TS -12.70 120.80
SI 01:00:00 TS -12.74 120.39 1005 1005
SI 03:00:00 TS -12.78 119.93
SI 06:00:00 TS -12.86 119.28 25 1003
SI 09:00:00 TS -12.96 118.72 27 1001
SI 11:00:00 TS -13.04 118.38 29 1000
SI 12:00:00 TS -13.10 118.22 30 1000
SI 15:00:00 TS -13.28 117.72 32 999
SI 18:00:00 TS -13.47 117.26 35 998
SI 21:00:00 TS -13.61 116.87 37 996
SI 23:00:00 TS -13.70 116.67 39 995
SI 1966-03-30 00:00:00 TS -13.75 116.62 40 995
SI 01:00:00 TS -13.80 116.58 995 995 40 994
SI 03:00:00 TS -13.89 116.53 42 992
SI 06:00:00 TS -14.02 116.50 45 990
SI 09:00:00 TS -14.12 116.46 50 987
SI 11:00:00 TS -14.19 116.45 53 984
SI 12:00:00 TS -14.22 116.44 55 984
SI 15:00:00 TS -14.34 116.42 60 981
SI 18:00:00 TS -14.46 116.39 65 978
SI 21:00:00 TS -14.57 116.36 67 975
SI 23:00:00 TS -14.66 116.33 69 972
SI 1966-03-31 00:00:00 TS -14.71 116.31 70 972
SI 01:00:00 TS -14.78 116.28 970 970 70 971
SI 03:00:00 TS -14.92 116.22 969 72 970
SI 06:00:00 TS -15.18 116.11 967 75 968
SI 09:00:00 TS -15.46 116.03 966 77 966
SI 11:00:00 TS -15.66 115.98 965 79 965
SI 12:00:00 TS -15.76 115.96 965 80 965
SI 13:00:00 TS -15.85 115.93 965 965 80 965
SI 15:00:00 TS -16.03 115.88 965 80 965
SI 18:00:00 TS -16.30 115.82 965 80 965
SI 21:00:00 TS -16.56 115.79 965 80 965
SI 23:00:00 TS -16.74 115.79 965 80 965
SI 1966-04-01 00:00:00 TS -16.84 115.79 965 80 965
SI 01:00:00 TS -16.94 115.80 965 965 80 965
SI 03:00:00 TS -17.16 115.83 80 965
SI 06:00:00 TS -17.49 115.90 80 965
SI 09:00:00 TS -17.82 116.00 80 965
SI 11:00:00 TS -18.04 116.07 80 965
SI 12:00:00 TS -18.14 116.11 80 965
SI 15:00:00 TS -18.44 116.22 80 965
SI 18:00:00 TS -18.74 116.34 80 965
SI 21:00:00 TS -19.06 116.47 80 965
SI 22:00:00 TS -19.18 116.51 965 965 80 965
SI 23:00:00 TS -19.29 116.55 965 80 965
SI 1966-04-02 00:00:00 TS -19.41 116.59 965 80 965
SI 01:00:00 TS -19.54 116.63 965 965 80 965
SI 03:00:00 TS -19.81 116.72 965 80 965
SI 06:00:00 TS -20.24 116.76 965 80 965
SI 07:00:00 TS -20.39 116.74 965 965 76 965
SI 08:00:00 TS -20.55 116.68 965 965 73 966
SI 09:00:00 TS -20.69 116.64 966 70 967
SI 11:00:00 TS -20.97 116.55 970 63 969
SI 12:00:00 TS -21.09 116.51 972 60 970
SI 15:00:00 TS -21.46 116.37 978 52 975
SI 16:00:00 TS -21.59 116.31 980 980 50 977
SI 18:00:00 TS -21.88 116.15 983 45 981
SI 21:00:00 TS -22.37 115.91 988 42 986
SI 23:00:00 TS -22.70 115.75 991 40 989
SI 1966-04-03 00:00:00 TS -22.87 115.68 993 40 991
SI 01:00:00 TS -23.03 115.62 995 995 39 991
SI 03:00:00 TS -23.36 115.52 995 37 993
SI 06:00:00 TS -23.84 115.38 997 35 996
SI 09:00:00 TS -24.31 115.26 998 35 997
SI 11:00:00 TS -24.64 115.19 999 35 998
SI 12:00:00 TS -24.82 115.16 999 35 999
SI 13:00:00 TS -25.01 115.13 1000 1000 34 999
SI 15:00:00 TS -25.40 115.09 1000 32 1000
SI 18:00:00 TS -25.99 115.05 1001 30 1001
SI 21:00:00 TS -26.52 115.02 1002 30 1001
SI 23:00:00 TS -26.83 115.01 1002 30 1001
SI 1966-04-04 00:00:00 TS -26.96 115.00 1002 30 1002
SI 01:00:00 TS -27.06 115.00 1003 1003
SI 03:00:00 TS -27.25 115.02
SI 06:00:00 TS -27.51 115.08
SI 09:00:00 TS -27.76 115.13
SI 11:00:00 TS -27.91 115.18
SI 12:00:00 TS -27.99 115.22
SI 15:00:00 TS -28.23 115.35
SI 18:00:00 TS -28.48 115.51
SI 21:00:00 NR -28.72 115.69
SI 23:00:00 NR -28.90 115.80

Source Information

Agency Information
USA bsh351966.txt
TOKYO
CMA
HKO
NEWDELHI
REUNION
BOM IDCKMSTM0S.csv:Line=4594:SHIRLEY
NADI
WELLINGTON
DS824 s_hem.dat:1007:35S
TD9636 cons_worldwide_trop_cyclone_18710101-19891231-006:Line=7521
TD9635
NEUMANN tracks.sh:Storm=172:SHIRLEY:BSH3566:BM353
MLC

All available IBTrACS Data

SEASON BASIN SUBBASIN ISO_TIME_________ NATURE LAT LON WMO PRES WMO AGENCY DIST2LAND LANDFALL IFLAG USA AGENCY USA ATCF_ID USA LAT USA LON USA SSHS BOM LAT BOM LON BOM PRES BOM PRES_METHOD DS824 LAT DS824 LON DS824 STAGE TD9636 LAT TD9636 LON TD9636 STAGE NEUMANN LAT NEUMANN LON NEUMANN CLASS NEUMANN WIND NEUMANN PRES STORM SPEED STORM DIR
Year degrees north degrees east mb km km degrees north degrees east 1 degrees north degrees east mb degrees north degrees east degrees north degrees east degrees north degrees east kts mb kts degrees
1966 SI WA 1966-03-28 23:00:00 NR -12.70 121.00 274 270 __________O___ -1 -12.70 121.00 1 12 270
1966 SI WA 1966-03-29 00:00:00 TS -12.70 120.80 270 268 O________OP___ jtwc_sh SH351966 -12.70 120.80 -1 -12.70 120.80 TC -12.70 120.80 1 18 266
1966 SI WA 01:00:00 TS -12.74 120.39 1005 bom 269 269 P_____O__PP___ SH351966 -12.72 120.58 -1 -12.90 119.00 1005 -12.72 120.58 TC -12.71 120.59 1 17 265
1966 SI WA 03:00:00 TS -12.78 119.93 287 287 P_____P__PP___ SH351966 -12.76 120.14 -1 -12.98 118.80 -12.76 120.14 TC -12.72 120.18 1 13 263
1966 SI WA 06:00:00 TS -12.86 119.28 317 317 O_____P__OP_O_ jtwc_sh SH351966 -12.80 119.50 -1 -13.10 118.50 -12.80 119.50 TC -12.75 119.56 1 -13.10 118.80 TC 25 1003 12 262
1966 SI WA 09:00:00 TS -12.96 118.72 353 353 P_____P__PP_P_ SH351966 -12.82 118.90 -1 -13.22 118.22 -12.82 118.90 TC -12.82 118.93 1 -13.26 118.55 TC 27 1001 11 259
1966 SI WA 11:00:00 TS -13.04 118.38 369 369 P_____P__PO_P_ SH351966 -12.86 118.50 -1 -13.30 118.03 -12.86 118.50 TC -12.90 118.50 1 -13.36 118.38 TC 29 1000 10 254
1966 SI WA 12:00:00 TS -13.10 118.22 391 391 O_____P__OP_O_ jtwc_sh SH351966 -12.90 118.30 -1 -13.34 117.94 -12.90 118.30 TC -12.95 118.28 1 -13.40 118.30 TC 30 1000 10 250
1966 SI WA 15:00:00 TS -13.28 117.72 431 431 P_____P__PP_P_ SH351966 -13.14 117.62 -1 -13.48 117.68 -13.14 117.62 TC -13.13 117.64 1 -13.50 118.05 TC 32 999 10 249
1966 SI WA 18:00:00 TS -13.47 117.26 468 468 O_____P__OP_O_ jtwc_sh SH351966 -13.40 117.00 -1 -13.62 117.44 -13.40 117.00 TC -13.32 117.04 1 -13.60 117.80 TC 35 998 9 248
1966 SI WA 21:00:00 TS -13.61 116.87 498 498 P_____P__PP_P_ SH351966 -13.53 116.51 -1 -13.77 117.23 -13.53 116.51 TC -13.50 116.55 1 -13.74 117.54 TC 37 996 7 248
1966 SI WA 23:00:00 TS -13.70 116.67 516 516 P_____P__PO_P_ SH351966 -13.58 116.28 -1 -13.88 117.11 -13.58 116.28 TC -13.60 116.30 1 -13.84 117.37 TC 39 995 6 241
1966 SI WA 1966-03-30 00:00:00 TS -13.75 116.62 517 517 O_____P__OP_O_ jtwc_sh SH351966 -13.60 116.20 -1 -13.94 117.05 -13.60 116.20 TC -13.63 116.21 1 -13.90 117.30 TC 40 995 4 219
1966 SI WA 01:00:00 TS -13.80 116.58 995 bom 528 528 P_____O__PP_P_ SH351966 -13.62 116.14 -1 -14.00 117.00 995 -13.62 116.14 TC -13.65 116.15 1 -13.96 117.23 TC 40 994 3 210
1966 SI WA 03:00:00 TS -13.89 116.53 540 540 P_____P__PP_P_ SH351966 -13.66 116.09 -1 -14.12 116.91 -13.66 116.09 TC -13.68 116.07 1 -14.09 117.12 TC 42 992 3 199
1966 SI WA 06:00:00 TS -14.02 116.50 551 551 O_____P__OP_O_ jtwc_sh SH351966 -13.70 116.10 -1 -14.32 116.80 -13.70 116.10 TC -13.70 116.04 1 -14.30 117.00 TC 45 990 2 197
1966 SI WA 09:00:00 TS -14.12 116.46 562 562 P_____P__PP_P_ SH351966 -13.70 116.09 -1 -14.53 116.72 -13.70 116.09 TC -13.70 116.07 1 -14.50 116.93 TC 50 987 2 190
1966 SI WA 11:00:00 TS -14.19 116.45 574 574 P_____P__PO_P_ SH351966 -13.70 116.10 -1 -14.67 116.68 -13.70 116.10 TC -13.70 116.10 1 -14.63 116.91 TC 53 984 2 192
1966 SI WA 12:00:00 TS -14.22 116.44 574 574 O_____P__OP_O_ jtwc_sh SH351966 -13.70 116.10 -1 -14.75 116.66 -13.70 116.10 TC -13.69 116.10 1 -14.70 116.90 TC 55 984 2 192
1966 SI WA 15:00:00 TS -14.34 116.42 586 586 P_____P__PP_P_ SH351966 -13.75 116.11 -1 -14.97 116.63 -13.75 116.11 TC -13.67 116.09 1 -14.89 116.85 TC 60 981 2 191
1966 SI WA 18:00:00 TS -14.46 116.39 608 608 O_____P__OP_O_ jtwc_sh SH351966 -13.80 116.10 -1 -15.19 116.61 -13.80 116.10 TC -13.67 116.08 1 -15.10 116.80 TC 65 978 2 193
1966 SI WA 21:00:00 TS -14.57 116.36 619 619 P_____P__PP_P_ SH351966 -13.77 116.08 -1 -15.41 116.60 -13.77 116.08 TC -13.72 116.05 1 -15.35 116.74 TC 67 975 3 195
1966 SI WA 23:00:00 TS -14.66 116.33 631 631 P_____P__PO_P_ SH351966 -13.77 116.04 -1 -15.56 116.60 -13.77 116.04 TC -13.80 116.00 2 -15.52 116.71 TC 69 972 3 201
1966 SI WA 1966-03-31 00:00:00 TS -14.71 116.31 631 631 O_____P__OP_O_ jtwc_sh SH351966 -13.80 116.00 -1 -15.63 116.60 -13.80 116.00 TC -13.86 115.96 2 -15.60 116.70 TC 70 972 4 202
1966 SI WA 01:00:00 TS -14.78 116.28 970 bom 642 639 P_____O__PP_P_ SH351966 -13.85 115.95 -1 -15.70 116.60 970 -13.85 115.95 TC -13.93 115.91 2 -15.67 116.69 TC 70 971 5 203
1966 SI WA 03:00:00 TS -14.92 116.22 639 607 P_____P__PP_P_ SH351966 -13.99 115.82 -1 -15.85 116.59 969 -13.99 115.82 TC -14.09 115.80 2 -15.81 116.69 TC 72 970 5 203
1966 SI WA 06:00:00 TS -15.18 116.11 607 585 O_____P__OP_O_ jtwc_sh SH351966 -14.30 115.60 -1 -16.07 116.59 967 -14.30 115.60 TC -14.40 115.61 2 -16.00 116.70 TC 75 968 6 198
1966 SI WA 09:00:00 TS -15.46 116.03 575 564 P_____P__PP_P_ SH351966 -14.68 115.44 -1 -16.27 116.59 966 -14.68 115.44 TC -14.75 115.42 2 -16.22 116.70 TC 77 966 6 195
1966 SI WA 11:00:00 TS -15.66 115.98 553 553 P_____P__PO_P_ SH351966 -14.96 115.35 -1 -16.39 116.60 965 -14.96 115.35 TC -15.00 115.30 1 -16.34 116.70 TC 79 965 6 193
1966 SI WA 12:00:00 TS -15.76 115.96 542 542 O_____P__OP_O_ jtwc_sh SH351966 -15.10 115.30 -1 -16.45 116.60 965 -15.10 115.30 TC -15.12 115.25 1 -16.40 116.70 TC 80 965 6 191
1966 SI WA 13:00:00 TS -15.85 115.93 965 bom 532 521 P_____O__PP_P_ SH351966 -15.23 115.24 -1 -16.50 116.60 965 -15.23 115.24 TC -15.25 115.19 1 -16.44 116.70 TC 80 965 6 194
1966 SI WA 15:00:00 TS -16.03 115.88 521 490 P_____P__PP_P_ SH351966 -15.50 115.14 -1 -16.57 116.60 965 -15.50 115.14 TC -15.51 115.09 1 -16.51 116.70 TC 80 965 5 193
1966 SI WA 18:00:00 TS -16.30 115.82 490 468 O_____P__OP_O_ jtwc_sh SH351966 -15.90 115.00 -1 -16.65 116.60 965 -15.90 115.00 TC -15.91 114.98 1 -16.60 116.70 TC 80 965 5 190
1966 SI WA 21:00:00 TS -16.56 115.79 457 446 P_____P__PP_P_ SH351966 -16.30 114.91 -1 -16.74 116.60 965 -16.30 114.91 TC -16.33 114.91 1 -16.67 116.70 TC 80 965 5 185
1966 SI WA 23:00:00 TS -16.74 115.79 446 435 P_____P__PO_P_ SH351966 -16.57 114.89 -1 -16.81 116.60 965 -16.57 114.89 TC -16.60 114.90 1 -16.74 116.70 TC 80 965 6 175
1966 SI WA 1966-04-01 00:00:00 TS -16.84 115.79 435 424 O_____P__OP_O_ jtwc_sh SH351966 -16.70 114.90 -1 -16.85 116.60 965 -16.70 114.90 TC -16.73 114.91 1 -16.80 116.70 TC 80 965 6 176
1966 SI WA 01:00:00 TS -16.94 115.80 965 bom 424 402 P_____O__PP_P_ SH351966 -16.84 114.91 -1 -16.90 116.60 965 -16.84 114.91 TC -16.87 114.92 1 -16.88 116.70 TC 80 965 6 172
1966 SI WA 03:00:00 TS -17.16 115.83 391 356 P_____P__PP_P_ SH351966 -17.11 114.96 -1 -17.04 116.59 -17.11 114.96 TC -17.13 114.97 1 -17.07 116.70 TC 80 965 7 170
1966 SI WA 06:00:00 TS -17.49 115.90 356 321 O_____P__OP_O_ jtwc_sh SH351966 -17.50 115.10 -1 -17.31 116.58 -17.50 115.10 TC -17.51 115.10 1 -17.40 116.70 TC 80 965 7 167
1966 SI WA 09:00:00 TS -17.82 116.00 321 297 P_____P__PP_P_ SH351966 -17.87 115.28 -1 -17.62 116.57 -17.87 115.28 TC -17.88 115.27 1 -17.69 116.69 TC 80 965 7 164
1966 SI WA 11:00:00 TS -18.04 116.07 297 286 P_____P__PO_P_ SH351966 -18.10 115.43 -1 -17.85 116.56 -18.10 115.43 TC -18.10 115.40 2 -17.89 116.69 TC 80 965 7 162
1966 SI WA 12:00:00 TS -18.14 116.11 286 251 O_____P__OP_O_ jtwc_sh SH351966 -18.20 115.50 -1 -17.98 116.57 -18.20 115.50 TC -18.20 115.47 2 -18.00 116.70 TC 80 965 6 161
1966 SI WA 15:00:00 TS -18.44 116.22 251 216 P_____P__PP_P_ SH351966 -18.46 115.69 -1 -18.36 116.58 -18.46 115.69 TC -18.47 115.68 2 -18.34 116.75 TC 80 965 6 160
1966 SI WA 18:00:00 TS -18.74 116.34 216 180 O_____P__OP_O_ jtwc_sh SH351966 -18.70 115.90 -1 -18.76 116.61 -18.70 115.90 TC -18.72 115.92 2 -18.70 116.80 TC 80 965 7 159
1966 SI WA 21:00:00 TS -19.06 116.47 169 157 P_____P__PP_P_ SH351966 -18.98 116.15 -1 -19.17 116.67 -18.98 116.15 TC -18.99 116.16 2 -19.03 116.81 TC 80 965 7 160
1966 SI WA 22:00:00 TS -19.18 116.51 965 bom 157 146 P_____O__PP_P_ SH351966 -19.08 116.24 -1 -19.30 116.70 965 -19.08 116.24 TC -19.09 116.23 2 -19.15 116.81 TC 80 965 7 161
1966 SI WA 23:00:00 TS -19.29 116.55 145 134 P_____P__PO_P_ SH351966 -19.19 116.32 -1 -19.43 116.74 965 -19.19 116.32 TC -19.20 116.30 2 -19.27 116.80 TC 80 965 8 162
1966 SI WA 1966-04-02 00:00:00 TS -19.41 116.59 134 123 O_____P__OP_O_ jtwc_sh SH351966 -19.30 116.40 -1 -19.56 116.78 965 -19.30 116.40 TC -19.32 116.38 2 -19.40 116.80 TC 80 965 8 162
1966 SI WA 01:00:00 TS -19.54 116.63 965 bom 123 89 P_____O__PP_P_ SH351966 -19.42 116.48 -1 -19.70 116.80 965 -19.42 116.48 TC -19.44 116.46 2 -19.54 116.81 TC 80 965 8 163
1966 SI WA 03:00:00 TS -19.81 116.72 89 44 P_____P__PP_P_ SH351966 -19.67 116.63 -1 -19.96 116.91 965 -19.67 116.63 TC -19.70 116.60 2 -19.85 116.84 TC 80 965 9 170
1966 SI WA 06:00:00 TS -20.24 116.76 44 22 O_____P__OP_O_ jtwc_sh SH351966 -20.10 116.80 -1 -20.42 116.80 965 -20.10 116.80 TC -20.13 116.79 2 -20.30 116.80 TC 80 965 9 0
1966 SI WA 07:00:00 TS -20.39 116.74 965 bom 22 11 P_____O__PP_P_ SH351966 -20.26 116.85 -1 -20.60 116.60 965 4 -20.26 116.85 TC -20.28 116.83 2 -20.43 116.74 TC 76 965 9 195
1966 SI WA 08:00:00 TS -20.55 116.68 965 bom 11 0 P_____O__PP_P_ SH351966 -20.42 116.89 -1 -20.80 116.30 965 -20.42 116.89 TC -20.43 116.87 2 -20.56 116.66 TC 73 966 10 197
1966 SI WA 09:00:00 TS -20.69 116.64 0 0 P_____P__PP_P_ SH351966 -20.58 116.92 -1 -20.95 116.08 966 -20.58 116.92 TC -20.58 116.89 2 -20.68 116.57 TC 70 967 9 196
1966 SI WA 11:00:00 TS -20.97 116.55 0 0 P_____P__PO_P_ SH351966 -20.93 116.93 -1 -21.11 115.88 970 -20.93 116.93 TC -20.90 116.90 2 -20.90 116.39 TC 63 969 8 196
1966 SI WA 12:00:00 TS -21.09 116.51 0 0 O_____P__OP_O_ jtwc_sh SH351966 -21.10 116.90 -1 -21.15 115.87 972 -21.10 116.90 TC -21.06 116.87 2 -21.00 116.30 TC 60 970 8 199
1966 SI WA 15:00:00 TS -21.46 116.37 0 0 P_____P__PP_P_ SH351966 -21.61 116.70 -1 -21.24 115.97 978 -21.61 116.70 TC -21.57 116.71 2 -21.22 116.14 TC 52 975 8 200
1966 SI WA 16:00:00 TS -21.59 116.31 980 bom 0 0 P_____O__PP_P_ SH351966 -21.77 116.60 -1 -21.30 116.00 980 -21.77 116.60 TC -21.74 116.63 2 -21.30 116.10 TC 50 977 9 206
1966 SI WA 18:00:00 TS -21.88 116.15 0 0 O_____P__OP_O_ jtwc_sh SH351966 -22.10 116.40 -1 -21.59 115.86 983 -22.10 116.40 TC -22.09 116.46 2 -21.50 116.00 TC 45 981 10 206
1966 SI WA 21:00:00 TS -22.37 115.91 0 0 P_____P__PP_P_ SH351966 -22.57 116.13 -1 -22.16 115.61 988 -22.57 116.13 TC -22.59 116.18 2 -22.00 115.80 TC 42 986 11 204
1966 SI WA 23:00:00 TS -22.70 115.75 0 0 P_____P__PO_P_ SH351966 -22.86 115.97 -1 -22.57 115.44 991 -22.86 115.97 TC -22.90 116.00 2 -22.40 115.66 TC 40 989 11 202
1966 SI WA 1966-04-03 00:00:00 TS -22.87 115.68 0 0 O_____P__OP_O_ jtwc_sh SH351966 -23.00 115.90 -1 -22.79 115.37 993 -23.00 115.90 TC -23.03 115.93 2 -22.60 115.60 TC 40 991 11 200
1966 SI WA 01:00:00 TS -23.03 115.62 995 bom 0 0 P_____O__PP_P_ SH351966 -23.14 115.84 -1 -23.00 115.30 995 -23.14 115.84 TC -23.15 115.86 2 -22.80 115.54 TC 39 991 10 198
1966 SI WA 03:00:00 TS -23.36 115.52 0 0 P_____P__PP_P_ SH351966 -23.41 115.73 -1 -23.39 115.20 995 -23.41 115.73 TC -23.39 115.73 2 -23.20 115.43 TC 37 993 10 195
1966 SI WA 06:00:00 TS -23.84 115.38 0 0 O_____P__OP_O_ jtwc_sh SH351966 -23.80 115.60 -1 -23.97 115.10 997 -23.80 115.60 TC -23.74 115.55 2 -23.80 115.30 TC 35 996 10 194
1966 SI WA 09:00:00 TS -24.31 115.26 0 0 P_____P__PP_P_ SH351966 -24.16 115.44 -1 -24.55 115.04 998 -24.16 115.44 TC -24.11 115.39 2 -24.36 115.18 TC 35 997 10 192
1966 SI WA 11:00:00 TS -24.64 115.19 0 0 P_____P__PO_P_ SH351966 -24.44 115.34 -1 -24.93 115.01 999 -24.44 115.34 TC -24.40 115.30 1 -24.72 115.12 TC 35 998 10 190
1966 SI WA 12:00:00 TS -24.82 115.16 0 0 O_____P__OP_O_ jtwc_sh SH351966 -24.60 115.30 -1 -25.12 115.01 999 -24.60 115.30 TC -24.59 115.26 1 -24.90 115.10 TC 35 999 11 188
1966 SI WA 13:00:00 TS -25.01 115.13 1000 bom 0 0 P_____O__PP_P_ SH351966 -24.80 115.26 -1 -25.30 115.00 1000 -24.80 115.26 TC -24.78 115.21 1 -25.09 115.09 TC 34 999 12 185
1966 SI WA 15:00:00 TS -25.40 115.09 0 0 P_____P__PP_P_ SH351966 -25.23 115.19 -1 -25.65 114.99 1000 -25.23 115.19 TC -25.20 115.14 1 -25.46 115.08 TC 32 1000 12 185
1966 SI WA 18:00:00 TS -25.99 115.05 0 0 O_____P__OP_O_ jtwc_sh SH351966 -25.90 115.10 -1 -26.17 114.99 1001 -25.90 115.10 TC -25.84 115.06 1 -26.00 115.10 TC 30 1001 11 183
1966 SI WA 21:00:00 TS -26.52 115.02 0 0 P_____P__PP_P_ SH351966 -26.45 115.03 -1 -26.66 114.99 1002 -26.45 115.03 TC -26.45 115.01 1 -26.51 115.11 TC 30 1001 10 183
1966 SI WA 23:00:00 TS -26.83 115.01 0 0 P_____P__PO_P_ SH351966 -26.76 115.00 -1 -26.98 114.99 1002 -26.76 115.00 TC -26.80 115.00 1 -26.84 115.10 TC 30 1001 9 182
1966 SI WA 1966-04-04 00:00:00 TS -26.96 115.00 0 0 O_____P__OP_O_ jtwc_sh SH351966 -26.90 115.00 -1 -27.14 115.00 1002 -26.90 115.00 TC -26.94 114.99 1 -27.00 115.10 TC 30 1002 7 0
1966 SI WA 01:00:00 TS -27.06 115.00 1003 bom 0 0 P_____O__PP___ SH351966 -27.03 115.01 -1 -27.30 115.00 1003 -27.03 115.01 TC -27.06 114.99 1 TC 6 0
1966 SI WA 03:00:00 TS -27.25 115.02 0 0 P________PP___ SH351966 -27.24 115.03 -1 -27.24 115.03 TC -27.27 115.01 1 TC 6 171
1966 SI WA 06:00:00 TS -27.51 115.08 0 0 O________OP___ jtwc_sh SH351966 -27.50 115.10 -1 -27.50 115.10 TC -27.54 115.05 1 5 170
1966 SI WA 09:00:00 TS -27.76 115.13 0 0 P________PP___ SH351966 -27.76 115.14 -1 -27.76 115.14 TC -27.76 115.13 1 5 167
1966 SI WA 11:00:00 TS -27.91 115.18 0 0 P________PO___ SH351966 -27.92 115.17 -1 -27.92 115.17 TC -27.90 115.20 1 5 163
1966 SI WA 12:00:00 TS -27.99 115.22 0 0 O________OP___ jtwc_sh SH351966 -28.00 115.20 -1 -28.00 115.20 TC -27.97 115.24 1 5 155
1966 SI WA 15:00:00 TS -28.23 115.35 0 0 P________PP___ SH351966 -28.25 115.33 -1 -28.25 115.33 TC -28.21 115.37 1 6 152
1966 SI WA 18:00:00 TS -28.48 115.51 0 0 O________OP___ jtwc_sh SH351966 -28.50 115.50 -1 -28.50 115.50 TC -28.46 115.52 1 6 149
1966 SI WA 21:00:00 NR -28.72 115.69 0 0 __________P___ SH351966 -1 TC -28.72 115.69 1 6 149
1966 SI WA 23:00:00 NR -28.90 115.80 0 __________O___ SH351966 -1 TC -28.90 115.80 1 6 151